x

9410230 - La Jolla, Ca (ljac1) Weather Station

9:30 - Sat 20th Dec 2014 All times are PST. -8 hours from GMT.

  • Wind
    6mph, 7mph gusts
  • Sea Temp 64°f
  • Luft Temp 59°f
  • Sea Pressure 1023.2mb
  • 9410230 - La Jolla, Ca
  • 9410230 - La Jolla, Ca

More Historic Weather Station data

Upgrade to MSW Pro to gain access to the past 30 days of data for over 8000 Wavebouys and Weather Stations around the globe.

Join Pro

Comparision Forecast

View Surf forecast
   
Sa 12/20 9:30 6 7 mph 1023.2mb 64f 59f
9:24 3 6 mph 1023.1mb 64f 59f
9:18 3 7 mph 1023.1mb 64f 59f
9:12 6
mph
1023.1mb 64f 59f
9:06 5 6 mph 1022.7mb 64f 59f
9:00 5 6 mph 1022.6mb 63f 59f
8:54 5 6 mph 1022.6mb 63f 59f
8:48 5 6 mph 1022.5mb 63f 59f
8:42 5 7 mph 1022.5mb 63f 58f
8:36 6 8 mph 1022.6mb 63f 57f
8:30 6 8 mph 1022.4mb 63f 57f
8:24 8 10 mph 1022.7mb 63f 57f
8:18 7 8 mph 1022.4mb 63f 56f
8:12 7 8 mph 1022.4mb 63f 56f
8:06 7 9 mph 1022.4mb 63f 56f
8:00 7 11 mph 1022.4mb 63f 56f
7:54 7 9 mph 1022.1mb 63f 56f
7:48 8 9 mph 1022.3mb 63f 55f
7:42 9 10 mph 1022.3mb 63f 56f
7:36 8 10 mph 1022.3mb 63f 55f
7:30 10 11 mph 1022.2mb 63f 55f
7:24 8 9 mph 1022.2mb 63f 55f
7:18 7 8 mph 1022.2mb 63f 56f
7:12 8 10 mph 1022mb 63f 55f
7:06 8 10 mph 1022.1mb 63f 55f
7:00 10 13 mph 1022mb 63f 55f
6:54 10 13 mph 1021.8mb 63f 55f
6:48 10 13 mph 1021.7mb 64f 55f
6:42 9 10 mph 1021.6mb 64f 55f
6:36 7 10 mph 1021.7mb 64f 56f
6:30 8 10 mph 1021.4mb 64f 56f
6:24 8 9 mph 1021.5mb 64f 56f
6:18 7 10 mph 1021.5mb 64f 56f
6:12 8 9 mph 1021.1mb 64f 55f
6:06 8 9 mph 1021.1mb 64f 55f
6:00 7 8 mph 1021mb 64f 55f
5:54 6 8 mph 1020.9mb 64f 55f
5:48 6 8 mph 1020.8mb 64f 55f
5:42 5 8 mph 1020.6mb 64f 55f
5:36 7 9 mph 1020.5mb 64f 55f
5:30 7 9 mph 1020.3mb 64f 55f
5:24 7 8 mph 1020.3mb 64f 55f
5:18 5 6 mph 1020.6mb 64f 56f
5:12 5 6 mph 1020.7mb 64f 56f
5:06 3 6 mph 1020.7mb 64f 56f
5:00 2 3 mph 1020.8mb 64f 56f
4:54 1 2 mph 1020.7mb 64f 56f
4:48 1 2 mph 1020.7mb 64f 56f
4:42 1 2 mph 1020.8mb 64f 56f
4:36 2
mph
1020.6mb 64f 56f
4:30 1
mph
1020.7mb 64f 56f
4:24  -  2 mph 1020.7mb 64f 56f
4:18 2
mph
1020.8mb 64f 56f
4:12 1 5 mph 1020.7mb 64f 56f
4:06 3 5 mph 1020.6mb 64f 56f
4:00 2 3 mph 1020.6mb 64f 56f
3:54 3 5 mph 1020.6mb 64f 56f
3:48 2 3 mph 1020.7mb 64f 56f
3:42 2
mph
1020.9mb 64f 56f
3:36 2 3 mph 1020.9mb 64f 56f
3:30 3 5 mph 1020.9mb 64f 56f
3:24 2 3 mph 1020.9mb 64f 56f
3:18 2 5 mph 1020.9mb 64f 56f
3:12 6 8 mph 1020.8mb 64f 56f
3:06 7 8 mph 1020.7mb 64f 55f
3:00 7 8 mph 1020.7mb 64f 55f
2:54 6 8 mph 1020.6mb 64f 55f
2:48 8 9 mph 1020.5mb 64f 55f
2:42 8 10 mph 1020.7mb 64f 55f
2:36 9 10 mph 1020.7mb 64f 55f
2:30 7 8 mph 1020.7mb 64f 56f
2:24 7
mph
1020.9mb 64f 56f
2:18 6 7 mph 1021mb 64f 56f
2:12 7 8 mph 1021.2mb 64f 56f
2:06 7 8 mph 1021.4mb 64f 56f
2:00 7 8 mph 1021.5mb 64f 56f
1:54 2 5 mph 1021.4mb 64f 57f
1:48 2
mph
1021.4mb 64f 58f
1:42 2
mph
1021.6mb 64f 58f
1:36  -  2 mph 1021.9mb 64f 58f
1:30 2
mph
1021.9mb 64f 58f
1:24 1 2 mph 1021.9mb 64f 59f
1:18 2 5 mph 1022mb 64f 60f
1:12 3 5 mph 1021.9mb 64f 60f
1:06 2 5 mph 1021.9mb 64f 60f
1:00 2 5 mph 1021.8mb 64f 60f
12:54 6 7 mph 1021.6mb 64f 60f
12:48 5 6 mph 1021.5mb 64f 60f
12:42 5 6 mph 1021.6mb 64f 60f
12:36 5 6 mph 1021.6mb 64f 60f
12:30 5 7 mph 1021.5mb 64f 60f
12:24 6 8 mph 1021.5mb 64f 60f
12:18 7 8 mph 1021.5mb 64f 60f
12:12 7 8 mph 1021.4mb 64f 60f
12:06 7 8 mph 1021.4mb 64f 60f
12:00 7 8 mph 1021.5mb 64f 60f
Fr 12/19 11:54 7 10 mph 1021.5mb 64f 60f
11:48 9 10 mph 1021.7mb 64f 61f
11:42 9 11 mph 1021.8mb 64f 61f
11:36 10 13 mph 1021.6mb 64f 61f
11:30 11 13 mph 1021.7mb 64f 61f
11:24 10 11 mph 1021.7mb 64f 61f
11:18 10 11 mph 1021.8mb 64f 61f
11:12 9 10 mph 1021.8mb 64f 61f
11:06 9 10 mph 1022mb 64f 61f
11:00 9 10 mph 1022mb 64f 61f
10:54 8 11 mph 1022.3mb 64f 61f
10:48 10 13 mph 1022mb 64f 61f
10:42 9 11 mph 1021.7mb 64f 61f
10:36 9 10 mph 1021.7mb 64f 61f
10:30 7 9 mph 1021.7mb 64f 61f
10:24 9 11 mph 1022.1mb 64f 61f
10:18 9 10 mph 1022.4mb 64f 61f
10:12 8 9 mph 1022.3mb 64f 62f
10:06 8 9 mph 1022.4mb 64f 62f
10:00 8 9 mph 1022.2mb 64f 62f
9:54 8 10 mph 1022.1mb 64f 62f
9:48 9 13 mph 1021.9mb 64f 62f
9:42 10 13 mph 1021.9mb 64f 63f
9:36 11 14 mph 1021.8mb 64f 62f
9:30 10 14 mph 1021.8mb 64f 63f
9:24 9 13 mph 1021.6mb 64f 62f
9:18 9 11 mph 1021.4mb 64f 62f
9:12 8 10 mph 1021.3mb 64f 62f
9:06 8 11 mph 1021.4mb 64f 62f
9:00 9 11 mph 1021.4mb 64f 62f
8:54 8 10 mph 1021.3mb 64f 62f
8:48 9 14 mph 1021.6mb 64f 62f
8:42 11 14 mph 1022mb 64f 62f
8:36 11 14 mph 1021.9mb 64f 62f
8:30 10 14 mph 1022mb 64f 62f
8:24 13 15 mph 1022mb 64f 62f
8:18 11 14 mph 1022.1mb 64f 62f
8:12 11 15 mph 1022.1mb 64f 62f
8:06 13 14 mph 1022.2mb 64f 62f
8:00 13 14 mph 1022.1mb 64f 62f
7:54 11 13 mph 1022mb 64f 62f
7:48 9 13 mph 1021.9mb 64f 62f
7:42 9 11 mph 1021.8mb 64f 62f
7:36 10 13 mph 1021.9mb 64f 62f
7:30 11 13 mph 1022mb 64f 62f
7:24 11 13 mph 1021.9mb 64f 62f
7:18 9 11 mph 1021.9mb 64f 62f
7:12 10 11 mph 1021.9mb 64f 62f
7:06 9 10 mph 1021.8mb 64f 62f
7:00 9 10 mph 1021.8mb 64f 61f
6:54 6 7 mph 1021.7mb 64f 61f
6:48 3 6 mph 1021.8mb 64f 61f
6:42 5
mph
1021.8mb 64f 61f
6:36 3 5 mph 1021.5mb 64f 61f
6:30 5 6 mph 1021.5mb 64f 61f
6:24 5 6 mph 1021.5mb 64f 61f
6:18 5 8 mph 1021.6mb 64f 61f
6:12 6 7 mph 1021.7mb 64f 61f
6:06 6
mph
1021.6mb 64f 61f
6:00 5 6 mph 1021.5mb 64f 61f
5:54 6 7 mph 1021.2mb 64f 61f
5:48 6 7 mph 1021.1mb 64f 61f
5:42 6 7 mph 1021.1mb 64f 61f
5:36 5 6 mph 1021mb 64f 61f
5:30 7 9 mph 1021.1mb 64f 62f
5:24 7 9 mph 1021mb 64f 62f
5:18 6 9 mph 1020.9mb 64f 62f
5:12 8 10 mph 1021mb 64f 62f
5:06 9 10 mph 1021mb 64f 61f
5:00 9
mph
1020.9mb 64f 61f
4:54 8
mph
1020.8mb 64f 62f
4:48 8 9 mph 1020.7mb 64f 61f
4:42 7 8 mph 1020.7mb 64f 62f
4:36 7 8 mph 1020.8mb 64f 62f
4:30 6 7 mph 1020.8mb 64f 62f
4:24 6 7 mph 1020.6mb 64f 62f
4:18 6 7 mph 1020.7mb 64f 62f
4:12 7 8 mph 1020.7mb 64f 62f
4:06 7 8 mph 1020.9mb 64f 62f
4:00 7 9 mph 1021mb 64f 62f
3:54 7 10 mph 1021.1mb 64f 62f
3:48 8
mph
1021.2mb 64f 62f
3:42 8 9 mph 1021.2mb 64f 62f
3:36 8 10 mph 1021.3mb 64f 62f
3:30 9 10 mph 1021.3mb 64f 62f
3:24 8 10 mph 1021.3mb 64f 62f
3:18 8 10 mph 1021.3mb 64f 62f
3:12 9 10 mph 1021.4mb 64f 62f
3:06 9 10 mph 1021.4mb 64f 62f
3:00 8 10 mph 1021.4mb 64f 62f
2:54 8 9 mph 1021.5mb 64f 62f
2:48 7 8 mph 1021.3mb 64f 62f
2:42 7 9 mph 1021.4mb 64f 62f
2:36 8 10 mph 1021.6mb 64f 62f
2:30 8 13 mph 1021.8mb 64f 62f
2:24 11 14 mph 1021.9mb 64f 62f
2:12 11 14 mph 1022mb 64f 63f
2:06 11 14 mph 1022mb 64f 63f
2:00 10 13 mph 1021.9mb 64f 63f
1:54 9 13 mph 1022mb 64f 63f
1:48 10 13 mph 1022mb 64f 63f
1:42 9 11 mph 1022mb 64f 63f
1:36 9 13 mph 1021.9mb 64f 63f
1:30 9 13 mph 1022mb 64f 63f
1:24 9 13 mph 1021.9mb 64f 64f
1:18 9 10 mph 1021.9mb 64f 64f
1:12 7 9 mph 1021.9mb 64f 64f
1:06 7 8 mph 1021.8mb 64f 64f
1:00 7 8 mph 1021.8mb 64f 64f
12:54 7 8 mph 1021.7mb 64f 64f
12:48 5 7 mph 1021.7mb 64f 64f
12:42 6 8 mph 1021.8mb 64f 64f
12:36 7 8 mph 1021.8mb 64f 64f
12:30 7 8 mph 1021.9mb 64f 63f
12:24 7 9 mph 1022.1mb 64f 63f
12:18 6 8 mph 1022.1mb 64f 64f
12:06 5 7 mph 1022.2mb 64f 64f
11:54 6
mph
1022.2mb 64f 63f
11:48 5 6 mph 1022.2mb 64f 64f
11:42 6 7 mph 1022.3mb 64f 63f
11:36 6
mph
1022.4mb 64f 63f
11:30 5 6 mph 1022.4mb 64f 64f
11:24 5 6 mph 1022.5mb 64f 64f
11:18 5 6 mph 1022.6mb 64f 64f
11:12 3 6 mph 1022.6mb 64f 64f
11:00 6 7 mph 1022.8mb 64f 64f
10:54 5 7 mph 1023mb 64f 64f
10:48 5 6 mph 1023.2mb 64f 64f
10:42 3 5 mph 1023.4mb 64f 64f
10:36 5 7 mph 1023.6mb 64f 64f
10:30 5 7 mph 1023.7mb 64f 64f
10:24 3 6 mph 1023.6mb 64f 64f
10:18 6 7 mph 1023.6mb 64f 64f
10:12 6 8 mph 1023.6mb 64f 63f
10:06 3 6 mph 1023.7mb 64f 64f
10:00 3 6 mph 1023.8mb 64f 64f
9:54 5 7 mph 1023.8mb 64f 63f
9:48 2 8 mph 1023.8mb 64f 63f
9:42 5 8 mph 1023.8mb 64f 63f
9:36 2 6 mph 1023.9mb 64f 63f
9:30 5 7 mph 1023.9mb 64f 62f
9:24 5 7 mph 1023.9mb 64f 62f
9:18 6 8 mph 1023.9mb 64f 61f
9:12 5 6 mph 1024.1mb 64f 62f
9:06 3 7 mph 1024.1mb 64f 62f
9:00 6 7 mph 1024mb 64f 61f
8:54 6
mph
1024.1mb 64f 60f
8:48 5 6 mph 1024mb 64f 60f
8:42 6 7 mph 1024mb 64f 60f
8:36 5 6 mph 1023.9mb 64f 60f
8:30 3
mph
1023.9mb 63f 60f
8:24 3 5 mph 1023.8mb 63f 60f
8:18 1 5 mph 1023.8mb 63f 59f
8:12 6 7 mph 1023.8mb 64f 57f
8:06 6 9 mph 1023.8mb 64f 56f
8:00 7 9 mph 1023.8mb 64f 56f
7:54 7 13 mph 1023.5mb 64f 56f
7:48 10 13 mph 1023.3mb 64f 56f
7:42 11 14 mph 1023.3mb 64f 55f
7:36 13 14 mph 1023.3mb 64f 55f
7:30 13 15 mph 1023.1mb 64f 55f
7:24 13 17 mph 1023.1mb 64f 54f
7:18 14 16 mph 1023.1mb 63f 54f
7:12 14 16 mph 1023.1mb 63f 54f
7:06 13 14 mph 1023.2mb 63f 54f
7:00 11 13 mph 1023.3mb 63f 55f
6:54 3 9 mph 1023.4mb 63f 55f
6:48 9 11 mph 1023.4mb 63f 55f
6:42 9 11 mph 1023.3mb 64f 55f
6:36 9 13 mph 1023.1mb 64f 55f
6:30 10 11 mph 1023mb 64f 55f
6:24 10 11 mph 1023mb 64f 55f
6:18 9 11 mph 1023.1mb 64f 55f
6:12 11
mph
1022.9mb 64f 55f
6:06 10 13 mph 1022.8mb 64f 56f
6:00 10 13 mph 1022.8mb 64f 56f
5:54 9 11 mph 1022.8mb 64f 56f
5:48 9 11 mph 1022.8mb 64f 56f
5:42 9 10 mph 1022.9mb 64f 56f
5:36 9 10 mph 1022.8mb 64f 56f
5:30 8 11 mph 1022.7mb 64f 56f
5:24 10 11 mph 1022.7mb 64f 56f
5:18 10 11 mph 1022.6mb 64f 56f
5:12 9 13 mph 1022.4mb 64f 56f
5:06 10 13 mph 1022.3mb 64f 55f
5:00 10 13 mph 1022.2mb 64f 56f
4:54 10 13 mph 1022.2mb 64f 56f
4:48 11 13 mph 1022.2mb 64f 56f
4:42 11 14 mph 1022.3mb 64f 56f
4:36 10 13 mph 1022.3mb 64f 55f
4:30 11 14 mph 1022.3mb 64f 55f
4:24 11 14 mph 1022.3mb 64f 55f
4:18 11 13 mph 1022.3mb 64f 56f
4:12 10 13 mph 1022.2mb 64f 56f
4:06 11 14 mph 1022.3mb 64f 55f
4:00 11 13 mph 1022.3mb 64f 55f
3:54 10 13 mph 1022.3mb 64f 55f
3:48 10 13 mph 1022.2mb 64f 55f
3:42 11 13 mph 1022.2mb 64f 56f
3:36 11 13 mph 1022.1mb 64f 56f
3:30 10 11 mph 1022.2mb 64f 56f
3:24 9 11 mph 1022.3mb 64f 57f
3:18 10 11 mph 1022.4mb 64f 57f
3:12 10 11 mph 1022.5mb 64f 57f
3:06 10 11 mph 1022.6mb 64f 57f
3:00 9 10 mph 1022.6mb 64f 56f
2:54 9 11 mph 1022.6mb 64f 56f
2:48 10 11 mph 1022.6mb 64f 56f
2:42 10 13 mph 1022.7mb 64f 56f
2:36 10 13 mph 1022.6mb 64f 55f
2:30 10 13 mph 1022.6mb 64f 55f
2:24 11 14 mph 1022.6mb 64f 55f
2:18 13 14 mph 1022.6mb 64f 55f
2:12 10 13 mph 1022.6mb 64f 56f
2:06 9 11 mph 1022.6mb 64f 56f
2:00 9 11 mph 1022.7mb 64f 56f
1:54 10 13 mph 1022.7mb 64f 56f
1:48 10 11 mph 1022.6mb 64f 56f
1:42 9 11 mph 1022.6mb 64f 56f
1:36 9 11 mph 1022.5mb 64f 57f
1:30 9 10 mph 1022.5mb 64f 57f
1:24 8 11 mph 1022.6mb 64f 57f
1:18 8 11 mph 1022.6mb 64f 57f
1:12 9 11 mph 1022.6mb 64f 57f
1:06 9 10 mph 1022.6mb 64f 57f
1:00 9 11 mph 1022.6mb 64f 57f
12:54 10 11 mph 1022.6mb 64f 57f
12:48 10 11 mph 1022.6mb 64f 57f
12:42 10 11 mph 1022.7mb 64f 57f
12:36 10 11 mph 1022.7mb 64f 57f
12:30 9 10 mph 1022.7mb 64f 57f
12:24 7 9 mph 1022.8mb 64f 58f
12:18 7 9 mph 1022.8mb 64f 58f
12:12 8 9 mph 1022.9mb 64f 57f
12:06 9 10 mph 1022.9mb 64f 57f
12:00 9 11 mph 1022.9mb 64f 57f
Do 12/18 11:54 10 11 mph 1022.8mb 64f 57f
11:48 10 13 mph 1022.8mb 64f 57f
11:42 10 13 mph 1022.9mb 64f 57f
11:36 10 13 mph 1022.8mb 64f 57f
11:30 10 11 mph 1022.9mb 64f 57f
11:24 9 11 mph 1023mb 64f 57f
11:18 10 13 mph 1023mb 64f 57f
11:12 10 11 mph 1023mb 64f 57f
11:06 10 11 mph 1023mb 64f 57f
11:00 10
mph
1023.1mb 64f 57f
10:54 8 10 mph 1023.1mb 64f 57f
10:48 9 13 mph 1023.1mb 64f 58f
10:42 9 11 mph 1023mb 64f 58f
10:36 9 10 mph 1023mb 64f 58f
10:30 8 9 mph 1023mb 64f 58f
10:24 9
mph
1023mb 64f 58f
10:18 8 9 mph 1023.1mb 64f 58f
10:12 8
mph
1023.1mb 64f 59f
10:06 8
mph
1023.2mb 64f 59f
10:00 7 9 mph 1023.1mb 64f 58f
9:54 9 10 mph 1023.1mb 64f 58f
9:48 8 9 mph 1023.1mb 64f 59f
9:42 7
mph
1023.1mb 64f 59f
9:36 6 7 mph 1023.1mb 64f 59f
9:30 7 8 mph 1023.1mb 64f 60f
9:24 6 7 mph 1023.1mb 64f 60f
9:18 3 6 mph 1023.1mb 64f 60f
9:12 5 7 mph 1023mb 64f 60f
9:06 5 6 mph 1023mb 64f 60f
9:00 5 7 mph 1023mb 64f 60f
8:54 6 7 mph 1023mb 64f 60f
8:48 6 7 mph 1023mb 64f 60f
8:42 6 7 mph 1023mb 64f 60f
8:36 3 5 mph 1023mb 64f 60f
8:30 3 5 mph 1022.9mb 64f 60f
8:24  -  2 mph 1022.9mb 64f 60f
8:18  -  1 mph 1022.9mb 64f 60f
8:12  -  1 mph 1022.9mb 64f 61f
8:06 1 2 mph 1022.8mb 64f 61f
8:00 2 3 mph 1022.8mb 64f 61f
7:54 2 3 mph 1022.8mb 64f 61f
7:48  -  1 mph 1022.8mb 64f 61f
7:42 1 2 mph 1022.7mb 64f 61f
7:36  -  2 mph 1022.7mb 64f 61f
7:30 1
mph
1022.7mb 64f 62f
7:24 1 2 mph 1022.7mb 64f 62f
7:18 2 3 mph 1022.7mb 64f 62f
7:12 1 3 mph 1022.7mb 64f 62f
7:06 5 6 mph 1022.6mb 64f 62f
7:00 2 5 mph 1022.6mb 64f 62f
6:54 5 6 mph 1022.6mb 64f 62f
6:48 3 5 mph 1022.6mb 64f 62f
6:42 5
mph
1022.5mb 64f 62f
6:36 3 5 mph 1022.5mb 64f 62f
6:30 3 5 mph 1022.4mb 64f 62f
6:24 3 5 mph 1022.4mb 64f 62f
6:18 2 5 mph 1022.3mb 64f 62f
6:12 3 6 mph 1022.2mb 64f 62f
6:06 3 6 mph 1022.1mb 64f 62f
6:00 3 5 mph 1022.1mb 64f 62f
5:54 3 5 mph 1022mb 64f 62f
5:48 3 5 mph 1021.9mb 64f 62f
5:42 3 5 mph 1021.9mb 64f 62f
5:36 3 6 mph 1021.8mb 64f 62f
5:30 5
mph
1021.8mb 64f 62f
5:24 5
mph
1021.7mb 64f 62f
5:18 2 6 mph 1021.7mb 64f 62f
5:12 3 5 mph 1021.7mb 64f 62f
5:06 5 6 mph 1021.7mb 64f 62f
5:00 5 6 mph 1021.6mb 64f 62f
4:54 5 6 mph 1021.5mb 64f 62f
4:48 3 6 mph 1021.5mb 64f 62f
4:42 5 6 mph 1021.4mb 64f 62f
4:36 3 5 mph 1021.4mb 65f 62f
4:30 3 5 mph 1021.3mb 64f 62f
4:24 5
mph
1021.3mb 64f 62f
4:18 5 6 mph 1021.3mb 64f 62f
4:12 5 6 mph 1021.2mb 64f 62f
4:06 3 6 mph 1021.2mb 64f 62f
4:00 3 6 mph 1021.2mb 65f 62f
3:54 5
mph
1021.2mb 65f 62f
3:48 5 6 mph 1021.2mb 65f 62f
3:42 5 7 mph 1021.2mb 64f 62f
3:36 3 6 mph 1021.2mb 64f 63f
3:30 5 6 mph 1021.2mb 64f 63f
3:24 5 7 mph 1021.2mb 64f 63f
3:18 5 6 mph 1021.2mb 64f 63f
3:12 2 5 mph 1021.1mb 64f 63f
3:06 3 6 mph 1021.1mb 64f 62f
3:00 2 3 mph 1021mb 64f 64f
2:54 2 5 mph 1021mb 64f 64f
2:48 3
mph
1021mb 64f 63f
2:42 3 5 mph 1021mb 64f 64f
2:36 1 3 mph 1020.9mb 64f 65f
2:30 2 3 mph 1020.8mb 64f 65f
2:24 1 2 mph 1020.9mb 64f 66f
2:18 1 3 mph 1020.9mb 64f 66f
2:12 2 5 mph 1020.9mb 64f 65f
2:06 3
mph
1021mb 64f 66f
2:00 2 3 mph 1020.9mb 64f 65f
1:54 3
mph
1021mb 64f 65f
1:48 2 3 mph 1020.9mb 64f 64f
1:42 3
mph
1021mb 64f 64f
1:36 2
mph
1020.9mb 64f 65f
1:30 2
mph
1020.9mb 64f 66f
1:24 2
mph
1021mb 64f 66f
1:18 2
mph
1021mb 64f 65f
1:12 2
mph
1021.1mb 64f 65f
1:06 2 3 mph 1021.2mb 64f 64f
1:00 3 5 mph 1021.4mb 64f 64f
12:54 3 5 mph 1021.4mb 64f 64f
12:48 3
mph
1021.5mb 64f 66f
12:42 2
mph
1021.4mb 64f 66f
12:36 1 2 mph 1021.5mb 64f 64f
12:30 1 3 mph 1021.5mb 64f 62f
12:24 2 3 mph 1021.6mb 64f 62f
12:18  -  2 mph 1021.7mb 64f 63f
12:06  -  1 mph 1021.7mb 64f 68f
12:00  -  1 mph 1021.7mb 64f 67f
11:54  -  2 mph 1021.8mb 64f 66f
11:48 2 3 mph 1022mb 64f 65f
11:42 2 3 mph 1022.1mb 64f 66f
11:36  -  1 mph 1022.1mb 64f 67f
11:30 1 2 mph 1022.3mb 64f 67f
11:24  -  2 mph 1022.3mb 64f 66f
11:18 2 3 mph 1022.4mb 64f 65f
11:12  -  3 mph 1022.5mb 64f 67f
11:06 1 2 mph 1022.5mb 64f 66f
11:00 1 2 mph 1022.6mb 64f 65f
10:54 2 3 mph 1022.7mb 64f 64f
10:48 1 5 mph 1022.8mb 64f 63f
10:42 1 5 mph 1022.9mb 64f 63f
10:36 3 5 mph 1022.9mb 64f 63f
10:30 2 3 mph 1023mb 64f 63f
10:24 3 5 mph 1023mb 64f 63f
10:18 2
mph
1023mb 64f 63f
10:12  -  mph 1023mb 64f 67f
10:06  -  1 mph 1023mb 64f 66f
10:00  -  2 mph 1023mb 64f 65f
9:54 2 3 mph 1023mb 64f 63f
9:48 1 3 mph 1023mb 64f 63f
9:42 1 5 mph 1023mb 64f 63f
9:36 3 6 mph 1022.9mb 64f 63f
9:30 6 7 mph 1022.9mb 64f 62f
9:24 6 7 mph 1022.8mb 64f 62f
9:18 6 8 mph 1022.7mb 64f 61f
9:12 3 8 mph 1022.7mb 64f 61f
9:06 6 7 mph 1022.7mb 64f 61f
9:00 6 10 mph 1022.5mb 64f 60f
8:54 7 9 mph 1022.4mb 64f 59f
8:48 7 9 mph 1022.4mb 64f 59f
8:42 9 10 mph 1022.4mb 64f 59f
8:36 8 11 mph 1022.3mb 64f 59f
8:30 7 11 mph 1022.2mb 64f 58f
8:24 8 10 mph 1022.2mb 64f 58f
8:18 8 11 mph 1022.1mb 64f 57f
8:12 8 11 mph 1022mb 64f 57f
8:06 8 11 mph 1022mb 64f 57f
8:00 8 11 mph 1021.9mb 64f 57f
7:54 9 11 mph 1021.9mb 64f 57f
7:48 8 13 mph 1021.8mb 64f 56f
7:42 9 13 mph 1021.9mb 64f 56f
7:36 9 13 mph 1021.8mb 64f 55f
7:30 10 13 mph 1021.8mb 64f 55f
7:24 9 11 mph 1021.8mb 64f 55f
7:18 9 11 mph 1021.7mb 64f 55f
7:12 9 11 mph 1021.7mb 64f 55f
7:06 9 11 mph 1021.6mb 64f 55f
7:00 9 11 mph 1021.6mb 64f 55f
6:54 8 10 mph 1021.6mb 64f 55f
6:48 9 11 mph 1021.5mb 64f 55f
6:42 7 10 mph 1021.4mb 64f 55f
6:36 8 11 mph 1021.3mb 64f 55f
6:30 8 11 mph 1021.3mb 64f 55f
6:24 8 13 mph 1021.3mb 64f 55f
6:18 10 13 mph 1021.2mb 64f 55f
6:12 10 14 mph 1021.1mb 64f 55f
6:00 10 14 mph 1021mb 64f 56f
5:54 9 13 mph 1021.1mb 64f 56f
5:48 10 11 mph 1021.1mb 64f 56f
5:42 8 11 mph 1021mb 64f 56f
5:36 8 10 mph 1021mb 64f 56f
5:30 8 11 mph 1020.9mb 64f 56f
5:24 7 10 mph 1020.8mb 64f 55f
5:18 8 9 mph 1020.8mb 64f 55f
5:12 8 11 mph 1020.7mb 64f 56f
5:06 8 10 mph 1020.7mb 64f 56f
5:00 7 10 mph 1020.6mb 64f 56f
4:54 8 10 mph 1020.5mb 64f 56f
4:48 7 9 mph 1020.5mb 64f 56f
4:42 7 9 mph 1020.5mb 64f 56f
4:36 8 10 mph 1020.4mb 64f 56f
4:30 8 10 mph 1020.4mb 64f 56f
4:24 9 11 mph 1020.5mb 64f 56f
4:18 7 10 mph 1020.4mb 64f 56f
4:12 8 11 mph 1020.4mb 64f 56f
4:06 6 11 mph 1020.4mb 64f 56f
4:00 8 10 mph 1020.3mb 64f 56f
3:54 7 10 mph 1020.3mb 64f 56f
3:48 8 11 mph 1020.3mb 64f 56f
3:42 7 9 mph 1020.3mb 64f 56f
3:36 8 10 mph 1020.2mb 64f 56f
3:30 7 10 mph 1020.3mb 64f 56f
3:24 7 11 mph 1020.2mb 64f 56f
3:18 8 11 mph 1020.2mb 64f 55f
3:12 8 9 mph 1020.3mb 64f 55f
3:06 6 10 mph 1020.3mb 64f 56f
3:00 7 10 mph 1020.3mb 64f 56f
2:54 7 8 mph 1020.3mb 64f 56f
2:48 6 8 mph 1020.3mb 64f 57f
2:42 6 7 mph 1020.2mb 64f 57f
2:36 3 5 mph 1020.3mb 64f 57f
2:30 2 6 mph 1020.2mb 64f 57f
2:24 6 7 mph 1020.2mb 64f 57f
2:18 5 7 mph 1020.3mb 64f 57f
2:12 5 6 mph 1020.2mb 64f 57f
2:06 6 7 mph 1020.1mb 64f 57f
2:00 3 9 mph 1020mb 64f 57f
1:54 7 9 mph 1019.9mb 64f 56f
1:48 7 8 mph 1019.9mb 64f 56f
1:42 7 9 mph 1020mb 64f 56f
1:36 7 8 mph 1019.9mb 64f 57f
1:30 5 7 mph 1019.9mb 64f 57f
1:24 5 9 mph 1019.9mb 64f 58f
1:18 3 6 mph 1020mb 64f 57f
1:12 5 8 mph 1020mb 64f 57f
1:06 7 11 mph 1020mb 64f 56f
1:00 13 14 mph 1020mb 64f 56f
12:54 9 10 mph 1020mb 64f 56f
12:48 9 10 mph 1019.9mb 64f 56f
12:42 8 10 mph 1019.9mb 64f 57f
12:36 8 10 mph 1019.9mb 64f 57f
12:30 8 11 mph 1019.9mb 64f 57f
12:24 7 10 mph 1019.9mb 64f 57f
12:18 2 5 mph 1019.9mb 64f 60f
12:12 5 7 mph 1019.9mb 64f 61f
12:06 6 8 mph 1019.9mb 64f 62f
12:00 7 10 mph 1020mb 64f 62f
Mi 12/17 11:54 7 8 mph 1020.2mb 64f 62f
11:48 7 8 mph 1020.2mb 64f 62f
11:42 8 9 mph 1020.3mb 64f 61f
11:36 6 8 mph 1020.3mb 64f 61f
11:30 6 8 mph 1020.4mb 64f 62f
11:24 6 10 mph 1020.5mb 64f 62f
11:18 7 9 mph 1020.5mb 64f 62f
11:12 8 9 mph 1020.6mb 64f 62f
11:06 8 10 mph 1020.6mb 64f 62f
11:00 8 10 mph 1020.6mb 64f 62f
10:54 8 10 mph 1020.6mb 64f 62f
10:48 6 9 mph 1020.6mb 64f 62f
10:42 7 9 mph 1020.6mb 64f 62f
10:36 8 10 mph 1020.7mb 64f 62f
10:30 8 9 mph 1020.6mb 64f 62f
10:24 8 10 mph 1020.6mb 64f 62f
10:18 9 13 mph 1020.6mb 64f 62f
10:12 8 13 mph 1020.5mb 64f 62f
10:06 10 13 mph 1020.5mb 64f 62f
10:00 8 13 mph 1020.5mb 64f 62f
9:54 8 10 mph 1020.5mb 64f 62f
9:48 8 10 mph 1020.4mb 64f 62f
9:42 8 10 mph 1020.4mb 64f 62f
9:36 8 10 mph 1020.3mb 64f 62f
9:30 8 9 mph 1020.3mb 64f 62f
9:24 6 7 mph 1020.2mb 64f 62f
9:18 8 9 mph 1020.1mb 64f 62f
9:12 8 9 mph 1020mb 64f 62f
9:06 6 8 mph 1019.9mb 64f 62f
9:00 7 8 mph 1020mb 64f 61f
8:54 2 7 mph 1019.9mb 64f 60f
8:48 3 6 mph 1019.8mb 64f 61f
8:42 2 5 mph 1019.9mb 64f 60f
8:36 3 5 mph 1019.8mb 64f 60f
8:30 3 6 mph 1019.8mb 64f 60f
8:24 5 6 mph 1019.8mb 64f 60f
8:18 3 6 mph 1019.7mb 64f 60f
8:12 5 7 mph 1019.7mb 64f 60f
8:06 3 5 mph 1019.7mb 64f 60f
8:00 5 7 mph 1019.6mb 64f 60f
7:54 6 7 mph 1019.6mb 64f 61f
7:48 3 5 mph 1019.5mb 64f 62f
7:42 3 5 mph 1019.4mb 64f 62f
7:36 3 5 mph 1019.5mb 64f 62f
7:30 5 6 mph 1019.6mb 64f 62f
7:24 6 8 mph 1019.7mb 64f 62f
7:18 5 7 mph 1019.7mb 64f 62f
7:12 6 9 mph 1019.7mb 64f 62f
7:06 6 9 mph 1019.8mb 64f 62f
7:00 7 9 mph 1019.9mb 64f 62f
6:54 8 9 mph 1019.9mb 64f 62f
6:48 6 7 mph 1019.8mb 64f 62f
6:42 7 9 mph 1019.6mb 64f 62f
6:36 7 9 mph 1019.7mb 64f 62f
6:24 8 10 mph 1019.6mb 64f 62f
6:18 9 10 mph 1019.5mb 64f 62f
6:12 8 11 mph 1019.7mb 64f 62f
6:06 9 13 mph 1019.6mb 64f 62f
6:00 9 11 mph 1019.6mb 64f 62f
5:54 10 14 mph 1019.6mb 64f 62f
5:48 11 14 mph 1019.6mb 64f 62f
5:42 13 17 mph 1019.6mb 64f 62f
5:36 14 18 mph 1019.7mb 64f 62f
5:30 13 18 mph 1019.7mb 64f 62f
5:24 11 17 mph 1019.6mb 64f 62f
5:18 16 20 mph 1019.5mb 64f 62f
5:12 16 20 mph 1019.4mb 64f 62f
5:00 15 18 mph 1019.3mb 64f 62f
4:54 15 21 mph 1019.3mb 64f 62f
4:48 15 18 mph 1019.3mb 64f 62f
4:42 17 20 mph 1019.3mb 64f 62f
4:36 16 20 mph 1019.3mb 64f 62f
4:30 14 17 mph 1019.2mb 64f 62f
4:24 16 18 mph 1019.2mb 64f 62f
4:18 14 20 mph 1019.1mb 64f 62f
4:12 13 17 mph 1019.1mb 64f 62f
4:00 14 17 mph 1019.1mb 64f 62f
3:54 15 18 mph 1019mb 64f 62f
3:48 13 17 mph 1019mb 64f 62f
3:42 13 16 mph 1019mb 64f 63f
3:36 14 15 mph 1019.1mb 64f 63f
3:30 11 17 mph 1019.1mb 64f 63f
3:24 15 20 mph 1019mb 64f 63f
3:18 13 17 mph 1019mb 64f 63f
3:12 15 17 mph 1019mb 64f 63f
3:06 14 17 mph 1019.1mb 64f 63f
3:00 14 18 mph 1019.1mb 64f 63f
2:54 17 20 mph 1019.1mb 64f 63f
2:48 15 18 mph 1019mb 64f 63f
2:42 17 21 mph 1019mb 64f 63f
2:36 16 18 mph 1019mb 64f 63f
2:30 13 15 mph 1018.9mb 64f 63f
2:24 15 17 mph 1018.7mb 64f 63f
2:18 11 17 mph 1018.7mb 64f 63f
2:06 11 15 mph 1018.7mb 64f 62f
2:00 14 16 mph 1018.6mb 64f 62f
1:54 13 16 mph 1018.6mb 64f 62f
1:48 11 16 mph 1018.6mb 64f 63f
1:42 14 16 mph 1018.6mb 64f 62f
1:36 13 15 mph 1018.5mb 64f 62f
1:30 11 15 mph 1018.5mb 64f 62f
1:24 11 14 mph 1018.4mb 64f 62f
1:18 11 13 mph 1018.3mb 64f 62f
1:12 9 13 mph 1018.3mb 64f 62f
1:00 11 15 mph 1018.2mb 64f 62f
12:48 14 15 mph 1018.2mb 64f 62f
12:42 11 14 mph 1018.2mb 64f 62f
12:36 13 14 mph 1018.2mb 64f 62f
12:30 10 14 mph 1018.2mb 64f 62f
12:24 11 14 mph 1018.2mb 64f 62f
12:12 11 14 mph 1018.3mb 64f 62f
12:06 10 13 mph 1018.3mb 64f 62f
12:00 13 15 mph 1018.4mb 64f 62f
11:54 13 15 mph 1018.5mb 64f 62f
11:48 11 14 mph 1018.5mb 64f 62f
11:42 13 14 mph 1018.5mb 64f 62f
11:36 10 15 mph 1018.6mb 64f 62f
11:30 11 16 mph 1018.6mb 64f 62f
11:24 13 15 mph 1018.8mb 64f 62f
11:12 11 16 mph 1018.7mb 64f 62f
11:06 10 14 mph 1018.8mb 64f 62f
11:00 7 13 mph 1018.8mb 64f 62f
10:48 8 13 mph 1018.8mb 64f 63f
10:42 10 14 mph 1018.8mb 64f 62f
10:36 7 13 mph 1018.8mb 64f 63f
10:30 9 15 mph 1018.8mb 64f 63f
10:24 9 13 mph 1018.8mb 64f 62f
10:18 8 11 mph 1018.8mb 64f 62f
10:12 11 14 mph 1018.7mb 64f 62f
10:00 8 10 mph 1018.7mb 64f 62f
9:48 8 11 mph 1018.6mb 64f 62f
9:42 8 10 mph 1018.6mb 64f 61f
9:36 9 11 mph 1018.6mb 64f 60f
9:30 6 14 mph 1018.5mb 64f 60f
9:24 10 13 mph 1018.4mb 64f 60f
9:18 10 14 mph 1018.3mb - -
9:12 8 14 mph 1018.2mb - -
9:06 9 14 mph 1018.2mb - -
9:00 13 14 mph 1018.1mb 64f 59f
8:54 11 14 mph 1018mb 64f 59f
8:48 9 13 mph 1017.9mb 64f 59f
8:42 7 10 mph 1017.8mb 64f 59f
8:36 9 11 mph 1017.7mb 64f 59f
8:30 10 14 mph 1017.7mb 64f 58f
8:24 9 14 mph 1017.6mb 64f 58f
8:18 9 13 mph 1017.5mb 64f 57f
8:12 10 13 mph 1017.4mb 64f 57f
8:06 8 14 mph 1017.3mb 64f 57f
8:00 10 14 mph 1017.2mb 64f 57f
7:54 10 14 mph 1017.1mb 64f 56f
7:48 11 14 mph 1017.1mb 64f 56f
7:42 10 13 mph 1017.1mb 64f 56f
7:36 9 11 mph 1017.1mb 64f 56f
7:30 8 10 mph 1017.1mb 64f 56f
7:24 7 8 mph 1017mb 64f 56f
7:12 6 7 mph 1017mb 64f 56f
7:06 5 6 mph 1016.9mb 64f 56f
7:00 5 7 mph 1016.8mb 64f 56f
6:54 6
mph
1016.5mb 64f 56f
6:48 5 6 mph 1016.6mb 64f 56f
6:42 3 6 mph 1016.6mb 64f 57f
6:36 6 7 mph 1016.5mb 64f 57f
6:30 6
mph
1016.5mb 64f 57f
6:24 6 7 mph 1016.5mb 64f 57f
6:18 3 8 mph 1016.5mb 64f 57f
6:12 8 13 mph 1016.5mb 64f 57f
6:06 8 10 mph 1016.4mb 64f 57f
5:48 9 13 mph 1016.4mb 64f 57f
5:42 11 14 mph 1016.3mb 64f 56f
5:36 9 14 mph 1016.2mb 64f 56f
5:30 13 14 mph 1016mb 64f 56f
5:24 8 9 mph 1015.8mb 64f 57f
5:18 7 15 mph 1015.8mb 64f 57f
5:12 15 20 mph 1015.8mb 64f 58f
5:06 14 16 mph 1015.7mb 64f 59f
4:54 14 18 mph 1015.7mb 64f 60f
4:48 15 21 mph 1015.7mb 64f 59f
4:42 20 24 mph 1015.7mb 64f 60f
4:36 22 28 mph 1015.4mb 64f 61f
4:30 10 14 mph 1015.3mb 64f 61f
4:24 13 21 mph 1015.1mb 64f 61f
4:18 14 20 mph 1015.2mb 64f 62f
4:12 9 11 mph 1015.3mb 64f 60f
4:06 6 8 mph 1015.3mb 64f 60f
4:00 6 8 mph 1015.3mb 64f 59f
3:54 6 7 mph 1015.3mb 64f 60f
3:48 5 7 mph 1015.5mb 64f 60f
3:42 5 6 mph 1015.4mb 64f 61f
3:36 3 6 mph 1015.4mb 64f 61f
3:30 6
mph
1015.4mb 64f -
3:24 6 8 mph 1015.3mb 64f -
3:18 7 8 mph 1015.3mb 64f -
3:12 7 8 mph 1015.2mb 64f 61f
3:06 6 8 mph 1015.4mb 64f 61f
3:00 7 8 mph 1015.4mb 64f 61f
2:54 7 9 mph 1015.5mb 64f 61f
2:48 8 11 mph 1015.5mb 64f 61f
2:42 8 14 mph 1015.5mb 64f 62f
2:36 10 13 mph 1015.6mb 64f 62f
2:30 11 13 mph 1015.7mb 64f 62f
2:24 10 15 mph 1015.8mb 64f 62f
2:18 13 16 mph 1015.9mb 64f 62f
2:12 11 14 mph 1015.9mb 64f 62f
2:06 11 14 mph 1015.9mb 64f 63f
1:54 13 14 mph 1015.9mb 64f 62f
1:48 13 14 mph 1016mb 64f 62f
1:42 13 15 mph 1015.9mb 64f 63f
1:36 14 15 mph 1016mb 64f 62f
1:30 3 6 mph 1016mb 64f 59f
1:24 6 9 mph 1016mb 64f 58f
1:18 7 10 mph 1016mb 64f 58f
1:12 7 11 mph 1015.9mb 64f 57f
1:06 9 11 mph 1015.9mb 64f 57f
1:00 8 11 mph 1015.8mb 64f 57f
12:54 8 11 mph 1015.9mb 64f 57f
12:42 7 9 mph 1016.1mb 64f 57f
12:36 5 10 mph 1016.1mb 64f 57f
12:30 8 11 mph 1016.1mb 64f 57f
12:18 9 13 mph 1016.3mb 64f 57f
12:06 8 10 mph 1016.5mb 64f 58f
12:00 10 11 mph 1016.6mb 64f 57f
Di 12/16 11:54 7 8 mph 1016.6mb 64f 57f
11:48 5 7 mph 1016.6mb 64f 58f
11:42 7 9 mph 1016.6mb 64f 58f
11:36 7 9 mph 1016.7mb 64f 58f
11:30 7 11 mph 1016.7mb 64f 58f
11:24 9 11 mph 1016.8mb 64f 57f
11:18 9 14 mph 1016.9mb 64f 57f
11:12 9 11 mph 1016.9mb 64f 56f
11:06 10 13 mph 1017mb 64f 57f
11:00 10 14 mph 1016.9mb 64f 57f
10:54 8 14 mph 1017mb 64f 57f
10:48 10 14 mph 1017mb 64f 57f
10:42 10 15 mph 1017mb 64f 57f
10:36 10 14 mph 1016.9mb 64f 56f
10:30 9 15 mph 1016.9mb 64f 56f
10:24 13 16 mph 1016.8mb 64f 56f
10:18 13 15 mph 1016.8mb 64f 56f
10:12 13 17 mph 1016.8mb 64f 57f
10:06 15 17 mph 1016.7mb 64f 57f
10:00 14 16 mph 1016.8mb 64f 57f
9:54 14 16 mph 1016.9mb 64f 57f
9:48 14 15 mph 1016.9mb 64f 57f
9:42 14 15 mph 1016.9mb 64f 57f
9:36 13 15 mph 1016.9mb 64f 57f
9:30 13 15 mph 1016.8mb 64f 57f
9:24 11 16 mph 1016.8mb 64f 57f
9:18 10 15 mph 1016.8mb 64f 57f
9:12 9 13 mph 1016.8mb 64f 57f
9:06 7 11 mph 1016.7mb 64f 57f
9:00 7 10 mph 1016.6mb 64f 57f
8:54 7 9 mph 1016.6mb 64f 57f
8:48 9 13 mph 1016.6mb 64f 57f
8:42 11 17 mph 1016.5mb 64f 58f
8:36 14 17 mph 1016.5mb 64f 58f
8:30 10 15 mph 1016.5mb 64f 58f
8:24 11 14 mph 1016.4mb 64f 58f
8:18 11 14 mph 1016.4mb 64f 58f
8:12 10 13 mph 1016.4mb 64f 58f
8:06 10 14 mph 1016.3mb 64f 58f
8:00 11 14 mph 1016.2mb 64f 58f
7:54 9 13 mph 1016.1mb 64f 58f
7:48 8 14 mph 1016.1mb 64f 58f
7:42 8 16 mph 1016mb 64f 58f
7:36 9 14 mph 1016mb 64f 58f
7:30 10 13 mph 1015.9mb 64f 58f
7:24 7 10 mph 1016mb 64f 58f
7:18 9 13 mph 1015.9mb 64f 58f
7:12 10 14 mph 1015.9mb 64f 58f
7:06 11 15 mph 1015.8mb 64f 58f
7:00 11 14 mph 1015.8mb 64f 58f
6:54 11 15 mph 1015.8mb 64f 58f
6:48 9 14 mph 1015.8mb 64f 58f
6:42 10 14 mph 1015.7mb 64f 58f
6:36 10 14 mph 1015.7mb 64f 57f
6:30 13 15 mph 1015.7mb - 57f